createdAt,value
2023-05-04T00:02:06.663Z,14.77
2023-05-04T00:04:33.107Z,14.59
2023-05-04T00:06:59.515Z,14.63
2023-05-04T00:09:25.966Z,14.61
2023-05-04T00:11:52.443Z,14.57
2023-05-04T00:14:18.765Z,14.41
2023-05-04T00:16:45.760Z,14.34
2023-05-04T00:19:12.447Z,14.44
2023-05-04T00:21:38.776Z,14.47
2023-05-04T00:24:05.220Z,14.40
2023-05-04T00:26:31.540Z,14.39
2023-05-04T00:28:57.921Z,14.40
2023-05-04T00:31:24.284Z,14.39
2023-05-04T00:33:50.703Z,14.45
2023-05-04T00:36:17.371Z,14.38
2023-05-04T00:38:50.731Z,14.38
2023-05-04T00:41:17.958Z,14.47
2023-05-04T00:43:45.566Z,14.39
2023-05-04T00:46:12.112Z,14.32
2023-05-04T00:48:39.256Z,14.27
2023-05-04T00:51:06.587Z,14.16
2023-05-04T00:53:32.929Z,14.08
2023-05-04T00:55:59.518Z,13.97
2023-05-04T00:58:26.292Z,14.06
2023-05-04T01:00:52.860Z,14.08
2023-05-04T01:03:19.453Z,14.07
2023-05-04T01:05:53.149Z,14.04
2023-05-04T01:08:21.798Z,14.05
2023-05-04T01:10:53.975Z,14.15
2023-05-04T01:13:21.815Z,14.16
2023-05-04T01:15:48.962Z,14.03
2023-05-04T01:18:16.581Z,13.90
2023-05-04T01:20:43.130Z,13.88
2023-05-04T01:23:13.488Z,13.91
2023-05-04T01:25:44.320Z,13.93
2023-05-04T01:28:14.015Z,13.90
2023-05-04T01:30:43.936Z,13.93
2023-05-04T01:33:11.149Z,13.79
2023-05-04T01:35:37.810Z,13.65
2023-05-04T01:38:04.285Z,13.54
2023-05-04T01:40:30.831Z,13.44
2023-05-04T01:42:57.244Z,13.52
2023-05-04T01:45:23.622Z,13.58
2023-05-04T01:47:50.184Z,13.56
2023-05-04T01:50:17.491Z,13.72
2023-05-04T01:52:43.800Z,13.65
2023-05-04T01:55:10.208Z,13.48
2023-05-04T01:57:36.493Z,13.41
2023-05-04T02:00:03.933Z,13.22
2023-05-04T02:02:31.613Z,13.10
2023-05-04T02:04:57.978Z,13.21
2023-05-04T02:07:24.315Z,13.34
2023-05-04T02:09:50.579Z,13.33
2023-05-04T02:12:16.933Z,13.35
2023-05-04T02:14:43.522Z,13.20
2023-05-04T02:17:09.845Z,13.21
2023-05-04T02:19:36.230Z,13.27
2023-05-04T02:22:02.683Z,13.30
2023-05-04T02:24:29.781Z,13.29
2023-05-04T02:26:56.157Z,13.06
2023-05-04T02:29:22.850Z,13.09
2023-05-04T02:31:49.257Z,12.96
2023-05-04T02:34:15.846Z,13.03
2023-05-04T02:36:42.266Z,12.96
2023-05-04T02:39:08.710Z,12.94
2023-05-04T02:41:35.105Z,12.88
2023-05-04T02:44:01.535Z,12.83
2023-05-04T02:46:28.044Z,12.90
2023-05-04T02:48:54.348Z,12.88
2023-05-04T02:51:20.725Z,12.81
2023-05-04T02:53:47.073Z,12.71
2023-05-04T02:56:13.474Z,12.71
2023-05-04T02:58:39.882Z,12.72
2023-05-04T03:01:06.378Z,12.84
2023-05-04T03:03:32.776Z,12.82
2023-05-04T03:05:59.155Z,12.89
2023-05-04T03:08:25.600Z,12.91
2023-05-04T03:10:51.891Z,12.84
2023-05-04T03:13:18.321Z,12.88
2023-05-04T03:15:44.626Z,12.96
2023-05-04T03:18:10.960Z,13.01
2023-05-04T03:20:37.524Z,12.89
2023-05-04T03:23:03.851Z,12.75
2023-05-04T03:25:30.261Z,12.73
2023-05-04T03:27:57.358Z,12.69
2023-05-04T03:30:25.398Z,12.74
2023-05-04T03:32:54.448Z,12.75
2023-05-04T03:35:24.580Z,12.76
2023-05-04T03:37:51.476Z,12.80
2023-05-04T03:40:22.805Z,12.77
2023-05-04T03:42:49.269Z,12.59
2023-05-04T03:45:15.844Z,12.52
2023-05-04T03:47:42.232Z,12.51
2023-05-04T03:50:09.657Z,12.55
2023-05-04T03:52:36.257Z,12.59
2023-05-04T03:55:03.010Z,12.38
2023-05-04T03:57:29.337Z,12.30
2023-05-04T03:59:57.691Z,12.21
2023-05-04T04:02:24.372Z,12.28
2023-05-04T04:04:50.827Z,12.35
2023-05-04T04:07:17.874Z,12.32
2023-05-04T04:09:44.198Z,12.33
2023-05-04T04:12:10.712Z,12.28
2023-05-04T04:14:37.041Z,12.15
2023-05-04T04:17:03.373Z,12.21
2023-05-04T04:19:29.939Z,12.23
2023-05-04T04:21:58.198Z,12.13
2023-05-04T04:24:25.139Z,12.12
2023-05-04T04:26:51.917Z,12.12
2023-05-04T04:29:18.211Z,12.01
2023-05-04T04:31:44.581Z,11.96
2023-05-04T04:34:10.919Z,11.91
2023-05-04T04:36:37.329Z,12.06
2023-05-04T04:39:05.905Z,11.96
2023-05-04T04:41:32.350Z,12.01
2023-05-04T04:43:58.780Z,12.11
2023-05-04T04:46:25.380Z,12.16
2023-05-04T04:48:53.498Z,12.20
2023-05-04T04:51:19.878Z,12.14
2023-05-04T04:53:47.007Z,12.17
2023-05-04T04:56:13.414Z,12.19
2023-05-04T04:58:40.416Z,12.16
2023-05-04T05:01:08.235Z,12.29
2023-05-04T05:03:34.777Z,12.26
2023-05-04T05:06:04.058Z,12.24
2023-05-04T05:08:32.522Z,12.20
2023-05-04T05:10:58.863Z,12.19
2023-05-04T05:13:25.353Z,12.31
2023-05-04T05:15:51.772Z,12.26
2023-05-04T05:18:18.113Z,12.25
2023-05-04T05:20:44.694Z,12.13
2023-05-04T05:23:11.221Z,12.08
2023-05-04T05:25:38.746Z,12.20
2023-05-04T05:28:05.590Z,12.25
2023-05-04T05:30:31.947Z,12.36
2023-05-04T05:32:58.342Z,12.45
2023-05-04T05:35:24.766Z,12.56
2023-05-04T05:37:51.130Z,12.53
2023-05-04T05:40:17.705Z,12.61
2023-05-04T05:42:44.962Z,12.68
2023-05-04T05:45:11.454Z,12.94
2023-05-04T05:47:37.822Z,13.41
2023-05-04T05:50:04.572Z,13.88
2023-05-04T05:52:31.165Z,14.32
2023-05-04T05:54:57.763Z,14.53
2023-05-04T05:57:24.841Z,14.32
2023-05-04T05:59:51.400Z,14.29
2023-05-04T06:02:18.587Z,14.39
2023-05-04T06:04:45.169Z,14.40
2023-05-04T06:07:13.497Z,14.43
2023-05-04T06:09:39.869Z,14.56
2023-05-04T06:12:07.199Z,14.70
2023-05-04T06:14:33.573Z,14.88
2023-05-04T06:16:59.997Z,14.93
2023-05-04T06:19:27.517Z,15.13
2023-05-04T06:21:54.854Z,15.31
2023-05-04T06:24:22.681Z,15.29
2023-05-04T06:26:52.481Z,15.39
2023-05-04T06:29:18.839Z,15.56
2023-05-04T06:31:48.280Z,15.69
2023-05-04T06:34:17.873Z,15.75
2023-05-04T06:36:44.417Z,16.00
2023-05-04T06:39:10.805Z,16.40
2023-05-04T06:41:37.156Z,16.62
2023-05-04T06:44:04.615Z,16.67
2023-05-04T06:46:31.529Z,16.75
2023-05-04T06:48:58.349Z,16.75
2023-05-04T06:51:24.709Z,16.83
2023-05-04T06:53:51.000Z,16.96
2023-05-04T06:56:18.703Z,16.96
2023-05-04T06:58:45.129Z,16.95
2023-05-04T07:01:11.626Z,17.01
2023-05-04T07:03:38.870Z,17.12
2023-05-04T07:06:05.495Z,17.20
2023-05-04T07:08:31.887Z,17.23
2023-05-04T07:10:58.275Z,17.35
2023-05-04T07:13:25.132Z,17.54
2023-05-04T07:15:51.525Z,17.62
2023-05-04T07:18:18.239Z,17.53
2023-05-04T07:20:44.615Z,17.68
2023-05-04T07:23:11.559Z,17.86
2023-05-04T07:25:37.914Z,18.06
2023-05-04T07:28:04.479Z,18.08
2023-05-04T07:30:30.836Z,18.15
2023-05-04T07:32:57.193Z,18.10
2023-05-04T07:35:23.626Z,17.71
2023-05-04T07:37:49.984Z,17.62
2023-05-04T07:40:16.695Z,17.59
2023-05-04T07:42:43.174Z,17.78
2023-05-04T07:45:09.822Z,18.06
2023-05-04T07:47:36.706Z,18.01
2023-05-04T07:50:03.869Z,17.89
2023-05-04T07:52:30.662Z,17.96
2023-05-04T07:54:57.017Z,18.02
2023-05-04T07:57:23.449Z,18.14
2023-05-04T07:59:53.221Z,18.27
2023-05-04T08:02:19.679Z,18.32
2023-05-04T08:04:46.393Z,18.43
2023-05-04T08:07:15.495Z,18.52
2023-05-04T08:09:41.797Z,18.56
2023-05-04T08:12:08.895Z,18.79
2023-05-04T08:14:37.538Z,18.98
2023-05-04T08:17:04.513Z,18.79
2023-05-04T08:19:31.140Z,18.75
2023-05-04T08:21:57.480Z,18.59
2023-05-04T08:24:26.396Z,18.23
2023-05-04T08:27:06.657Z,18.25
2023-05-04T08:29:34.910Z,18.40
2023-05-04T08:32:01.325Z,18.13
2023-05-04T08:34:27.699Z,18.01
2023-05-04T08:36:54.247Z,18.11
2023-05-04T08:39:20.757Z,18.26
2023-05-04T08:41:47.974Z,18.28
2023-05-04T08:44:14.900Z,18.16
2023-05-04T08:46:41.286Z,18.41
2023-05-04T08:49:07.738Z,18.78
2023-05-04T08:51:36.314Z,19.21
2023-05-04T08:54:06.083Z,19.43
2023-05-04T08:56:32.695Z,19.26
2023-05-04T08:59:01.934Z,19.22
2023-05-04T09:01:29.855Z,19.42
2023-05-04T09:03:57.561Z,19.51
2023-05-04T09:06:24.106Z,19.88
2023-05-04T09:08:50.415Z,19.85
2023-05-04T09:11:17.759Z,19.94
2023-05-04T09:13:44.041Z,19.83
2023-05-04T09:16:12.246Z,19.93
2023-05-04T09:18:40.979Z,20.09
2023-05-04T09:21:07.712Z,20.42
2023-05-04T09:23:44.530Z,20.60
2023-05-04T09:26:10.891Z,20.82
2023-05-04T09:28:39.027Z,21.02
2023-05-04T09:31:06.238Z,21.39
2023-05-04T09:33:32.638Z,21.50
2023-05-04T09:36:19.263Z,21.44
2023-05-04T09:38:46.487Z,21.52
2023-05-04T09:41:12.944Z,20.95
2023-05-04T09:43:42.020Z,20.92
2023-05-04T09:46:18.757Z,20.73
2023-05-04T09:48:55.634Z,21.10
2023-05-04T09:51:23.218Z,21.10
2023-05-04T09:53:50.404Z,21.30
2023-05-04T09:56:35.649Z,21.17
2023-05-04T09:59:02.764Z,21.36
2023-05-04T10:01:29.770Z,21.23
2023-05-04T10:03:56.197Z,21.29
2023-05-04T10:06:24.279Z,20.91
2023-05-04T10:08:51.009Z,20.91
2023-05-04T10:11:19.290Z,21.27
2023-05-04T10:13:46.705Z,21.28
2023-05-04T10:16:31.783Z,21.28
2023-05-04T10:18:58.204Z,21.36
2023-05-04T10:21:39.210Z,21.41
2023-05-04T10:24:18.346Z,21.60
2023-05-04T10:27:03.489Z,21.90
2023-05-04T10:29:33.038Z,22.05
2023-05-04T10:31:59.673Z,22.07
2023-05-04T10:34:27.611Z,21.85
2023-05-04T10:36:54.165Z,22.18
2023-05-04T10:39:21.090Z,22.59
2023-05-04T10:41:59.116Z,22.63
2023-05-04T10:44:25.794Z,22.98
2023-05-04T10:47:05.717Z,23.23
2023-05-04T10:49:33.160Z,23.48
2023-05-04T10:52:06.586Z,23.12
2023-05-04T10:54:32.884Z,22.80
2023-05-04T10:57:02.867Z,22.66
2023-05-04T10:59:29.305Z,23.04
2023-05-04T11:01:55.674Z,23.05
2023-05-04T11:04:22.527Z,22.96
2023-05-04T11:07:01.930Z,22.76
2023-05-04T11:09:28.768Z,22.91
2023-05-04T11:11:56.235Z,23.23
2023-05-04T11:14:24.154Z,23.71
2023-05-04T11:16:50.629Z,23.96
2023-05-04T11:19:18.212Z,24.18
2023-05-04T11:21:44.804Z,24.29
2023-05-04T11:24:11.347Z,24.28
2023-05-04T11:26:49.366Z,24.02
2023-05-04T11:29:15.868Z,24.04
2023-05-04T11:31:44.332Z,23.60
2023-05-04T11:34:18.857Z,23.81
2023-05-04T11:36:45.321Z,23.80
2023-05-04T11:39:11.883Z,24.02
2023-05-04T11:41:38.303Z,24.40
2023-05-04T11:44:05.243Z,24.52
2023-05-04T11:46:32.947Z,24.52
2023-05-04T11:48:59.415Z,24.81
2023-05-04T11:51:25.846Z,24.97
2023-05-04T11:53:53.579Z,24.61
2023-05-04T11:56:19.927Z,24.38
2023-05-04T11:58:46.306Z,24.73
2023-05-04T12:01:14.068Z,25.36
2023-05-04T12:03:51.959Z,25.27
2023-05-04T12:06:30.897Z,25.72
2023-05-04T12:09:01.705Z,25.55
2023-05-04T12:11:28.765Z,25.89
2023-05-04T12:14:05.519Z,26.02
2023-05-04T12:16:32.072Z,26.41
2023-05-04T12:19:03.196Z,26.03
2023-05-04T12:21:30.269Z,26.00
2023-05-04T12:23:57.699Z,26.51
2023-05-04T12:26:24.152Z,26.71
2023-05-04T12:28:52.785Z,26.66
2023-05-04T12:31:19.325Z,26.92
2023-05-04T12:33:45.785Z,27.15
2023-05-04T12:36:12.199Z,26.90
2023-05-04T12:38:38.925Z,27.26
2023-05-04T12:41:06.323Z,27.80
2023-05-04T12:43:33.313Z,27.73
2023-05-04T12:45:59.676Z,27.53
2023-05-04T12:48:28.296Z,27.91
2023-05-04T12:50:54.695Z,27.95
2023-05-04T12:53:27.826Z,27.79
2023-05-04T12:55:54.444Z,27.20
2023-05-04T12:58:21.538Z,27.24
2023-05-04T13:00:48.860Z,27.62
2023-05-04T13:03:18.148Z,27.62
2023-05-04T13:05:49.975Z,28.36
2023-05-04T13:08:17.921Z,28.04
2023-05-04T13:10:46.198Z,28.07
2023-05-04T13:13:13.424Z,28.95
2023-05-04T13:15:40.152Z,29.27
2023-05-04T13:18:06.728Z,29.28
2023-05-04T13:20:33.471Z,29.26
2023-05-04T13:22:59.867Z,29.55
2023-05-04T13:25:26.952Z,29.45
2023-05-04T13:27:53.399Z,28.97
2023-05-04T13:30:21.518Z,28.93
2023-05-04T13:32:49.078Z,29.42
2023-05-04T13:35:16.185Z,29.95
2023-05-04T13:37:42.573Z,29.66
2023-05-04T13:40:09.511Z,29.43
2023-05-04T13:42:37.201Z,30.07
2023-05-04T13:45:04.264Z,30.67
2023-05-04T13:47:30.815Z,30.44
2023-05-04T13:49:57.138Z,30.65
2023-05-04T13:52:23.659Z,30.30
2023-05-04T13:54:49.969Z,30.78
2023-05-04T13:57:16.460Z,30.91
2023-05-04T13:59:48.745Z,31.31
2023-05-04T14:02:41.643Z,31.16
2023-05-04T14:05:08.946Z,31.35
2023-05-04T14:07:53.896Z,31.27
2023-05-04T14:10:20.342Z,31.64
2023-05-04T14:12:47.707Z,31.68
2023-05-04T14:15:17.618Z,32.13
2023-05-04T14:17:43.985Z,31.96
2023-05-04T14:20:10.454Z,32.15
2023-05-04T14:22:38.179Z,32.28
2023-05-04T14:25:04.985Z,32.28
2023-05-04T14:27:34.377Z,32.47
2023-05-04T14:30:01.444Z,32.38
2023-05-04T14:32:27.961Z,31.45
2023-05-04T14:35:00.225Z,31.13
2023-05-04T14:37:27.071Z,31.23
2023-05-04T14:39:54.386Z,30.68
2023-05-04T14:42:20.726Z,30.82
2023-05-04T14:44:47.454Z,30.65
2023-05-04T14:47:16.250Z,30.83
2023-05-04T14:49:42.974Z,31.54
2023-05-04T14:52:09.438Z,32.15
2023-05-04T14:54:35.918Z,32.44
2023-05-04T14:57:02.961Z,32.20
2023-05-04T14:59:29.476Z,31.62
2023-05-04T15:01:57.802Z,31.32
2023-05-04T15:04:24.098Z,30.71
2023-05-04T15:06:50.561Z,30.15
2023-05-04T15:09:17.320Z,29.52
2023-05-04T15:11:43.692Z,29.33
2023-05-04T15:14:10.050Z,29.73
2023-05-04T15:16:36.476Z,29.84
2023-05-04T15:19:02.903Z,29.81
2023-05-04T15:21:29.310Z,29.47
2023-05-04T15:23:56.015Z,29.15
2023-05-04T15:26:22.408Z,28.65
2023-05-04T15:28:49.575Z,28.61
2023-05-04T15:31:17.583Z,28.29
2023-05-04T15:33:49.311Z,28.24
2023-05-04T15:36:15.634Z,28.20
2023-05-04T15:38:45.193Z,28.13
2023-05-04T15:41:12.058Z,28.05
2023-05-04T15:43:38.749Z,28.09
2023-05-04T15:46:07.180Z,27.98
2023-05-04T15:48:33.594Z,27.76
2023-05-04T15:50:59.977Z,27.96
2023-05-04T15:53:26.738Z,27.93
2023-05-04T15:55:53.133Z,28.09
2023-05-04T15:58:19.526Z,28.34
2023-05-04T16:00:46.085Z,28.15
2023-05-04T16:03:12.631Z,28.31
2023-05-04T16:05:39.261Z,28.86
2023-05-04T16:08:05.689Z,29.09
2023-05-04T16:10:32.202Z,29.55
2023-05-04T16:13:04.783Z,29.60
2023-05-04T16:15:31.317Z,29.67
2023-05-04T16:17:57.681Z,29.77
2023-05-04T16:20:24.176Z,29.58
2023-05-04T16:22:50.539Z,29.28
2023-05-04T16:25:17.768Z,28.96
2023-05-04T16:27:44.094Z,28.70
2023-05-04T16:30:21.615Z,28.36
2023-05-04T16:32:48.659Z,27.92
2023-05-04T16:35:15.069Z,27.62
2023-05-04T16:37:41.442Z,27.44
2023-05-04T16:40:17.379Z,27.24
2023-05-04T16:42:43.972Z,27.10
2023-05-04T16:45:13.711Z,26.96
2023-05-04T16:47:41.807Z,26.91
2023-05-04T16:50:08.997Z,26.80
2023-05-04T16:52:35.661Z,26.71
2023-05-04T16:55:02.102Z,26.55
2023-05-04T16:57:28.438Z,26.37
2023-05-04T16:59:55.032Z,26.30
2023-05-04T17:02:21.648Z,26.20
2023-05-04T17:04:48.835Z,26.23
2023-05-04T17:07:15.178Z,26.09
2023-05-04T17:09:41.483Z,25.95
2023-05-04T17:12:07.894Z,25.90
2023-05-04T17:14:37.042Z,25.88
2023-05-04T17:17:03.696Z,25.92
2023-05-04T17:19:29.999Z,25.84
2023-05-04T17:21:56.366Z,25.76
2023-05-04T17:24:22.720Z,25.68
2023-05-04T17:26:49.841Z,25.60
2023-05-04T17:29:16.519Z,25.57
2023-05-04T17:31:43.940Z,25.54
2023-05-04T17:34:10.262Z,25.47
2023-05-04T17:36:36.615Z,25.47
2023-05-04T17:39:03.986Z,25.45
2023-05-04T17:41:31.199Z,25.38
2023-05-04T17:44:06.191Z,25.33
2023-05-04T17:46:32.656Z,25.26
2023-05-04T17:48:59.107Z,25.22
2023-05-04T17:51:25.440Z,25.05
2023-05-04T17:53:52.215Z,25.08
2023-05-04T17:56:20.377Z,24.96
2023-05-04T17:58:46.687Z,24.91
2023-05-04T18:01:13.071Z,24.94
2023-05-04T18:03:39.747Z,24.89
2023-05-04T18:06:06.394Z,24.52
2023-05-04T18:08:32.706Z,24.38
2023-05-04T18:10:59.035Z,24.33
2023-05-04T18:13:25.652Z,24.18
2023-05-04T18:15:52.278Z,24.09
2023-05-04T18:18:19.769Z,23.93
2023-05-04T18:20:46.055Z,23.89
2023-05-04T18:23:12.412Z,23.90
2023-05-04T18:25:39.344Z,23.91
2023-05-04T18:28:08.909Z,23.85
2023-05-04T18:30:35.671Z,23.79
2023-05-04T18:33:21.242Z,23.81
2023-05-04T18:35:47.736Z,23.81
2023-05-04T18:38:14.038Z,23.73
2023-05-04T18:40:40.336Z,23.66
2023-05-04T18:43:06.652Z,23.43
2023-05-04T18:45:33.208Z,23.33
2023-05-04T18:47:59.618Z,23.24
2023-05-04T18:50:26.012Z,23.25
2023-05-04T18:52:56.028Z,23.25
2023-05-04T18:55:22.437Z,22.96
2023-05-04T18:57:50.847Z,22.78
2023-05-04T19:00:17.152Z,22.77
2023-05-04T19:02:43.472Z,22.57
2023-05-04T19:05:10.817Z,22.34
2023-05-04T19:07:38.638Z,22.19
2023-05-04T19:10:06.629Z,22.15
2023-05-04T19:12:33.688Z,22.06
2023-05-04T19:15:00.033Z,21.86
2023-05-04T19:17:26.348Z,21.74
2023-05-04T19:19:52.759Z,21.70
2023-05-04T19:22:19.766Z,21.67
2023-05-04T19:24:49.379Z,21.53
2023-05-04T19:27:15.834Z,21.26
2023-05-04T19:29:42.142Z,21.32
2023-05-04T19:32:19.920Z,21.53
2023-05-04T19:34:50.316Z,21.43
2023-05-04T19:37:16.668Z,21.40
2023-05-04T19:39:43.005Z,21.45
2023-05-04T19:42:09.331Z,21.47
2023-05-04T19:44:35.758Z,21.29
2023-05-04T19:47:02.070Z,21.11
2023-05-04T19:49:28.577Z,20.91
2023-05-04T19:51:54.983Z,21.04
2023-05-04T19:54:21.306Z,20.88
2023-05-04T19:56:50.000Z,20.75
2023-05-04T19:59:16.919Z,20.66
2023-05-04T20:01:43.305Z,20.56
2023-05-04T20:04:10.592Z,20.50
2023-05-04T20:06:36.974Z,20.37
2023-05-04T20:09:03.859Z,20.34
2023-05-04T20:11:30.350Z,20.42
2023-05-04T20:13:56.748Z,20.52
2023-05-04T20:16:23.430Z,20.58
2023-05-04T20:18:49.764Z,20.72
2023-05-04T20:21:16.622Z,20.73
2023-05-04T20:23:43.545Z,20.76
2023-05-04T20:26:10.007Z,20.92
2023-05-04T20:28:36.354Z,21.01
2023-05-04T20:31:02.683Z,20.99
2023-05-04T20:33:29.030Z,21.08
2023-05-04T20:35:55.440Z,20.99
2023-05-04T20:38:21.777Z,20.87
2023-05-04T20:40:49.837Z,20.92
2023-05-04T20:43:17.364Z,21.01
2023-05-04T20:45:44.798Z,20.93
2023-05-04T20:48:11.292Z,20.69
2023-05-04T20:50:39.780Z,20.55
2023-05-04T20:53:06.319Z,20.50
2023-05-04T20:55:32.661Z,20.53
2023-05-04T20:57:58.983Z,20.46
2023-05-04T21:00:25.276Z,20.31
2023-05-04T21:02:51.791Z,20.34
2023-05-04T21:05:18.380Z,20.34
2023-05-04T21:07:45.441Z,20.08
2023-05-04T21:10:12.316Z,20.09
2023-05-04T21:12:38.924Z,20.01
2023-05-04T21:15:05.586Z,20.04
2023-05-04T21:17:32.243Z,20.04
2023-05-04T21:19:58.709Z,20.06
2023-05-04T21:22:25.067Z,20.02
2023-05-04T21:24:51.856Z,19.94
2023-05-04T21:27:18.400Z,19.99
2023-05-04T21:29:44.766Z,20.05
2023-05-04T21:32:11.057Z,20.05
2023-05-04T21:34:37.364Z,20.01
2023-05-04T21:37:03.877Z,19.97
2023-05-04T21:39:30.359Z,19.90
2023-05-04T21:41:56.698Z,20.02
2023-05-04T21:44:23.137Z,19.94
2023-05-04T21:46:49.803Z,19.83
2023-05-04T21:49:16.202Z,19.81
2023-05-04T21:51:42.737Z,19.87
2023-05-04T21:54:09.280Z,19.94
2023-05-04T21:56:35.866Z,19.87
2023-05-04T21:59:03.104Z,19.84
2023-05-04T22:01:29.604Z,19.64
2023-05-04T22:03:56.127Z,19.66
2023-05-04T22:06:24.425Z,19.73
2023-05-04T22:08:50.867Z,19.62
2023-05-04T22:11:17.355Z,19.60
2023-05-04T22:13:43.782Z,19.58
2023-05-04T22:16:11.180Z,19.55
2023-05-04T22:18:37.880Z,19.61
2023-05-04T22:21:04.363Z,19.54
2023-05-04T22:23:30.871Z,19.51
2023-05-04T22:25:57.427Z,19.42
2023-05-04T22:28:23.896Z,19.16
2023-05-04T22:30:50.437Z,19.21
2023-05-04T22:33:17.468Z,19.22
2023-05-04T22:35:43.909Z,19.31
2023-05-04T22:38:10.898Z,19.26
2023-05-04T22:40:40.191Z,19.25
2023-05-04T22:43:06.994Z,19.20
2023-05-04T22:45:34.866Z,18.98
2023-05-04T22:48:01.425Z,18.92
2023-05-04T22:50:27.932Z,18.86
2023-05-04T22:52:54.439Z,18.84
2023-05-04T22:55:20.876Z,18.92
2023-05-04T22:57:47.371Z,18.85
2023-05-04T23:00:14.165Z,18.86
2023-05-04T23:02:40.987Z,18.85
2023-05-04T23:05:08.951Z,18.89
2023-05-04T23:07:35.804Z,18.85
2023-05-04T23:10:02.247Z,18.77
2023-05-04T23:12:28.726Z,18.78
2023-05-04T23:14:55.175Z,18.75
2023-05-04T23:17:22.249Z,18.72
2023-05-04T23:19:49.805Z,18.56
2023-05-04T23:22:16.453Z,18.42
2023-05-04T23:24:43.178Z,18.53
2023-05-04T23:27:11.352Z,18.45
2023-05-04T23:29:37.883Z,18.38
2023-05-04T23:32:04.606Z,18.42
2023-05-04T23:34:31.185Z,18.56
2023-05-04T23:36:58.183Z,18.57
2023-05-04T23:39:24.648Z,18.52
2023-05-04T23:41:51.094Z,18.45
2023-05-04T23:44:18.578Z,18.27
2023-05-04T23:46:45.075Z,18.30
2023-05-04T23:49:12.137Z,18.41
2023-05-04T23:51:38.657Z,18.51
2023-05-04T23:54:05.092Z,18.48
2023-05-04T23:56:31.952Z,18.38
2023-05-04T23:58:58.455Z,18.41
